Alginet, Spain
Current Conditions -  °F | °C
As of 10:00 PM on Friday 24 Oct 2014 (Local Time) from LEVC Reporting Station
Clear Clear  
Wind Chill: 68°   Ceiling: Unl
Heat Index: 68°   Visibility: 6mi
Dew Point: 52°   Wind: 5mph
Humidity: 56%   Direction: 320°NW
Pressure: 30.03"   Gusts: NA
Location:  39.27°N, 0.47°W
Report Text: LEVC 242000Z 32004KT 280V350 CAVOK 20/11 Q1017 NOSIG
Loading
Personal Weather Stations






























Interactive Weather Map
Tropical Storm Tracking
New forecast layout! Learn more

10-Day Weather Forecast

Advertisements
Track Severe Weather on mobile